Terminal Aerodrome Forecast
Issued by NWS

Home | Current Version | Previous Version | Text Only | Print | Product List | Glossary On
Versions: 1 2 3 4 5 6 7 8 9 10 11 12 13 14 15
000
FTUS41 KPBZ 211458 AAB
TAFAGC
TAF AMD
KAGC 211458Z 2115/2212 21005KT 6SM BR OVC015
     FM211700 21005KT P6SM VCSH OVC025
     FM220300 21004KT 4SM -DZ BR VCSH OVC006=

USA.gov is the U.S. government's official web portal to all federal, state and local government web resources and services.